Time;durP1;ratioP1;P1;durP2;ratioP2;P2;SDS_P1;SDS_P2;PMS_P1;PMS_P2;Temp;Humidity;BMP_temperature;BMP_pressure;BME280_temperature;BME280_humidity;BME280_pressure;Samples;Min_cycle;Max_cycle;Signal;HPM_P1;HPM_P2
2023/06/17 00:00:16;;;;;;;7.23;5.10;;;;;;;14.55;100.00;100807.31;677024;29;794;-55
2023/06/17 00:00:36;;;;;;;6.88;4.90;;;;;;;14.55;100.00;100809.03;676842;29;1076;-55
2023/06/17 00:00:57;;;;;;;7.13;4.93;;;;;;;14.54;100.00;100802.94;675732;29;4631;-54
2023/06/17 00:01:17;;;;;;;7.63;5.15;;;;;;;14.54;100.00;100808.19;677444;29;1299;-55
2023/06/17 00:01:37;;;;;;;7.17;4.87;;;;;;;14.54;100.00;100802.94;676853;29;730;-55
2023/06/17 00:01:58;;;;;;;6.30;4.83;;;;;;;14.52;100.00;100802.06;675818;29;1583;-55
2023/06/17 00:02:18;;;;;;;7.57;5.03;;;;;;;14.50;100.00;100805.66;676777;29;1223;-55
2023/06/17 00:02:39;;;;;;;7.70;5.30;;;;;;;14.48;100.00;100808.28;674499;29;842;-55
2023/06/17 00:02:59;;;;;;;7.28;5.00;;;;;;;14.49;100.00;100810.03;673766;29;1461;-55
2023/06/17 00:03:19;;;;;;;8.47;5.40;;;;;;;14.48;100.00;100803.03;677506;29;873;-55
2023/06/17 00:03:40;;;;;;;7.43;5.10;;;;;;;14.47;100.00;100806.56;676557;29;4389;-55
2023/06/17 00:04:02;;;;;;;6.67;5.13;;;;;;;14.45;100.00;100803.09;676228;29;1444;-55
2023/06/17 00:04:23;;;;;;;7.28;5.03;;;;;;;14.43;100.00;100800.50;676253;29;1019;-55
2023/06/17 00:04:43;;;;;;;6.47;4.80;;;;;;;14.41;100.00;100799.66;676913;29;900;-55
2023/06/17 00:05:04;;;;;;;6.73;4.93;;;;;;;14.41;100.00;100801.41;675795;29;1517;-55
2023/06/17 00:05:27;;;;;;;6.50;5.00;;;;;;;14.37;100.00;100795.38;677597;29;1148;-55
2023/06/17 00:05:47;;;;;;;6.60;5.15;;;;;;;14.34;100.00;100802.44;677029;29;955;-55
2023/06/17 00:06:09;;;;;;;7.75;5.40;;;;;;;14.35;100.00;100801.53;675510;29;1888;-56
2023/06/17 00:06:29;;;;;;;8.20;5.32;;;;;;;14.35;100.00;100799.78;677267;29;1023;-56
2023/06/17 00:06:49;;;;;;;8.30;5.33;;;;;;;14.35;100.00;100796.28;675585;29;4582;-56
2023/06/17 00:07:10;;;;;;;7.38;5.07;;;;;;;14.35;100.00;100801.53;677621;29;898;-56
2023/06/17 00:07:30;;;;;;;6.63;4.77;;;;;;;14.36;100.00;100803.25;677371;29;1009;-56
2023/06/17 00:07:52;;;;;;;6.70;4.93;;;;;;;14.36;100.00;100798.88;674928;29;1562;-56
2023/06/17 00:08:12;;;;;;;6.32;4.97;;;;;;;14.35;100.00;100796.28;676863;29;976;-56
2023/06/17 00:08:32;;;;;;;6.70;4.83;;;;;;;14.36;100.00;100803.25;677257;29;766;-55
2023/06/17 00:08:54;;;;;;;6.55;4.88;;;;;;;14.38;100.00;100798.84;676302;29;1507;-56
2023/06/17 00:09:14;;;;;;;6.80;4.90;;;;;;;14.39;100.00;100798.81;677283;29;1025;-55
2023/06/17 00:09:35;;;;;;;6.83;4.90;;;;;;;14.40;100.00;100797.03;677511;29;951;-54
2023/06/17 00:09:55;;;;;;;7.32;5.10;;;;;;;14.42;100.00;100796.13;675263;29;4806;-56
2023/06/17 00:10:16;;;;;;;7.77;5.10;;;;;;;14.43;100.00;100795.22;677669;29;900;-56
2023/06/17 00:10:36;;;;;;;7.40;5.03;;;;;;;14.43;100.00;100797.88;677248;29;778;-54
2023/06/17 00:10:57;;;;;;;6.93;5.27;;;;;;;14.44;100.00;100796.09;675982;29;1547;-55
2023/06/17 00:11:17;;;;;;;7.70;5.20;;;;;;;14.44;100.00;100796.09;677365;29;854;-56
2023/06/17 00:11:40;;;;;;;6.95;5.13;;;;;;;14.44;100.00;100791.72;676281;29;874;-55
2023/06/17 00:12:02;;;;;;;7.60;5.28;;;;;;;14.44;100.00;100801.34;675127;29;953;-55
2023/06/17 00:12:24;;;;;;;7.30;5.15;;;;;;;14.44;100.00;100791.72;674890;29;1094;-56
2023/06/17 00:12:44;;;;;;;6.05;4.85;;;;;;;14.43;100.00;100797.88;673727;29;4334;-53
2023/06/17 00:13:07;;;;;;;5.90;4.80;;;;;;;14.44;100.00;100796.09;674017;29;1489;-55
2023/06/17 00:13:28;;;;;;;6.38;5.00;;;;;;;14.44;100.00;100790.84;677428;29;853;-56
2023/06/17 00:13:48;;;;;;;7.20;5.00;;;;;;;14.43;100.00;100789.13;674840;29;1204;-56
2023/06/17 00:14:09;;;;;;;7.00;4.77;;;;;;;14.41;100.00;100793.53;673781;29;1545;-56
2023/06/17 00:14:29;;;;;;;6.32;4.97;;;;;;;14.36;100.00;100798.00;677506;29;822;-53
2023/06/17 00:14:53;;;;;;;7.00;5.20;;;;;;;14.34;100.00;100794.53;675523;29;1487;-56
2023/06/17 00:15:16;;;;;;;6.38;4.97;;;;;;;14.33;100.00;100793.69;676671;29;941;-56
2023/06/17 00:15:42;;;;;;;8.63;5.07;;;;;;;14.36;100.00;100792.72;677492;29;850;-56
2023/06/17 00:16:06;;;;;;;7.03;5.10;;;;;;;14.31;100.00;100791.06;672972;29;4926;-55
2023/06/17 00:16:26;;;;;;;7.00;5.25;;;;;;;14.34;100.00;100794.53;674173;29;3414;-56
2023/06/17 00:16:47;;;;;;;7.45;5.30;;;;;;;14.30;100.00;100791.97;674679;29;2120;-56
2023/06/17 00:17:11;;;;;;;8.80;5.30;;;;;;;14.27;100.00;100786.78;673037;29;1528;-55
2023/06/17 00:17:32;;;;;;;7.53;5.03;;;;;;;14.30;100.00;100791.09;674634;29;830;-56
2023/06/17 00:17:53;;;;;;;6.80;5.47;;;;;;;14.31;100.00;100791.06;673336;29;1627;-54
2023/06/17 00:18:14;;;;;;;7.68;5.10;;;;;;;14.33;100.00;100787.53;674486;29;790;-56
2023/06/17 00:18:34;;;;;;;7.35;5.07;;;;;;;14.30;100.00;100791.97;674483;29;1000;-55
2023/06/17 00:18:55;;;;;;;7.05;5.55;;;;;;;14.29;100.00;100789.38;674483;29;4515;-56
2023/06/17 00:19:16;;;;;;;7.63;5.50;;;;;;;14.30;100.00;100785.81;677356;29;990;-56
2023/06/17 00:19:37;;;;;;;6.97;5.30;;;;;;;14.33;100.00;100787.53;677462;29;881;-55
2023/06/17 00:20:07;;;;;;;6.50;5.00;;;;;;;14.33;100.00;100796.31;675991;29;1481;-56
2023/06/17 00:20:29;;;;;;;6.57;5.10;;;;;;;14.27;100.00;100792.03;676976;29;928;-55
2023/06/17 00:20:52;;;;;;;7.25;5.25;;;;;;;14.26;100.00;100781.53;677474;29;754;-55
2023/06/17 00:21:12;;;;;;;6.53;5.30;;;;;;;14.23;100.00;100790.34;677423;29;837;-56
2023/06/17 00:21:33;;;;;;;6.30;5.10;;;;;;;14.23;100.00;100792.97;676952;29;1022;-56
2023/06/17 00:21:54;;;;;;;6.60;4.85;;;;;;;14.24;100.00;100792.06;675762;29;4351;-56
2023/06/17 00:22:14;;;;;;;7.25;5.00;;;;;;;14.23;100.00;100782.47;677232;29;798;-55
2023/06/17 00:22:35;;;;;;;7.33;5.30;;;;;;;14.20;100.00;100785.13;677221;29;1368;-54
2023/06/17 00:22:55;;;;;;;7.03;5.20;;;;;;;14.17;100.00;100782.56;675895;29;1542;-55
2023/06/17 00:23:16;;;;;;;7.17;5.30;;;;;;;14.16;100.00;100788.72;676991;29;1079;-56
2023/06/17 00:23:36;;;;;;;7.82;5.53;;;;;;;14.21;100.00;100783.38;677108;29;901;-56
2023/06/17 00:23:57;;;;;;;8.90;5.60;;;;;;;14.22;100.00;100785.09;675569;29;1495;-56
2023/06/17 00:24:17;;;;;;;6.53;5.32;;;;;;;14.21;100.00;100781.59;677432;29;817;-55
2023/06/17 00:24:40;;;;;;;6.70;5.00;;;;;;;14.23;100.00;100789.47;676882;29;976;-56
2023/06/17 00:25:02;;;;;;;7.50;4.90;;;;;;;14.21;100.00;100783.38;673169;29;4656;-56
2023/06/17 00:25:22;;;;;;;7.47;5.00;;;;;;;14.22;100.00;100792.97;677678;29;909;-55
2023/06/17 00:25:43;;;;;;;7.60;5.20;;;;;;;14.20;100.00;100786.91;677244;29;924;-56
2023/06/17 00:26:03;;;;;;;7.07;5.25;;;;;;;14.18;100.00;100784.31;675475;29;1744;-56
2023/06/17 00:26:23;;;;;;;6.87;5.47;;;;;;;14.18;100.00;100784.31;677723;29;782;-56
2023/06/17 00:26:44;;;;;;;6.90;5.30;;;;;;;14.19;100.00;100782.53;676917;29;1064;-55
2023/06/17 00:27:05;;;;;;;6.73;5.27;;;;;;;14.20;100.00;100782.50;675798;29;1488;-56
2023/06/17 00:27:25;;;;;;;7.93;5.80;;;;;;;14.21;100.00;100786.88;677549;29;797;-54
2023/06/17 00:27:46;;;;;;;6.75;5.13;;;;;;;14.20;100.00;100786.91;676742;29;4488;-56
2023/06/17 00:28:06;;;;;;;6.50;5.20;;;;;;;14.21;100.00;100778.97;676066;29;1574;-56
2023/06/17 00:28:26;;;;;;;7.00;5.30;;;;;;;14.23;100.00;100781.56;676764;29;1168;-56
2023/06/17 00:28:47;;;;;;;6.85;5.07;;;;;;;14.26;100.00;100778.88;677040;29;861;-56
2023/06/17 00:29:08;;;;;;;7.23;5.57;;;;;;;14.25;100.00;100785.06;675875;29;1487;-56
2023/06/17 00:29:28;;;;;;;8.80;5.53;;;;;;;14.24;100.00;100784.19;674649;29;1293;-56
2023/06/17 00:29:48;;;;;;;7.53;4.90;;;;;;;14.23;100.00;100779.84;674417;29;968;-55
2023/06/17 00:30:09;;;;;;;8.05;5.10;;;;;;;14.22;100.00;100787.72;670635;29;1524;-55
2023/06/17 00:30:30;;;;;;;6.97;5.07;;;;;;;14.24;100.00;100783.31;673544;29;902;-55
2023/06/17 00:30:50;;;;;;;6.70;5.10;;;;;;;14.23;100.00;100778.94;672805;29;4606;-57
2023/06/17 00:31:11;;;;;;;7.30;5.15;;;;;;;14.24;100.00;100778.06;676189;29;1213;-55
2023/06/17 00:31:31;;;;;;;7.50;5.40;;;;;;;14.23;100.00;100779.84;672261;29;1265;-56
2023/06/17 00:31:51;;;;;;;6.55;5.22;;;;;;;14.20;100.00;100779.88;670646;29;1789;-54
2023/06/17 00:32:12;;;;;;;7.00;5.17;;;;;;;14.20;100.00;100787.75;672608;29;1085;-56
2023/06/17 00:32:32;;;;;;;7.03;5.22;;;;;;;14.20;100.00;100782.50;672321;29;803;-54
2023/06/17 00:32:53;;;;;;;7.10;5.33;;;;;;;14.16;100.00;100788.72;670976;29;1561;-56
2023/06/17 00:33:14;;;;;;;7.70;5.20;;;;;;;14.12;100.00;100780.03;674271;29;1195;-55
2023/06/17 00:33:35;;;;;;;7.95;5.22;;;;;;;14.13;100.00;100778.25;675059;29;1411;-56
2023/06/17 00:33:55;;;;;;;7.28;5.13;;;;;;;14.10;100.00;100786.19;674918;29;4403;-56
2023/06/17 00:34:16;;;;;;;7.77;5.33;;;;;;;14.12;100.00;100777.41;676664;29;798;-56
2023/06/17 00:34:36;;;;;;;6.80;5.07;;;;;;;14.13;100.00;100786.13;674727;29;1292;-56
2023/06/17 00:34:57;;;;;;;7.40;5.30;;;;;;;14.13;100.00;100783.50;673008;29;1551;-56
2023/06/17 00:35:17;;;;;;;7.20;5.25;;;;;;;14.09;100.00;100781.81;674139;29;1892;-56
2023/06/17 00:35:37;;;;;;;6.83;5.17;;;;;;;14.07;100.00;100788.88;674064;29;941;-56
2023/06/17 00:35:59;;;;;;;8.60;4.70;;;;;;;14.06;100.00;100779.25;673134;29;1593;-56
2023/06/17 00:36:19;;;;;;;6.78;5.18;;;;;;;14.06;100.00;100779.25;671768;29;1134;-56
2023/06/17 00:36:39;;;;;;;7.60;5.37;;;;;;;14.07;100.00;100781.84;669311;29;4429;-55
2023/06/17 00:37:00;;;;;;;7.47;5.50;;;;;;;14.08;100.00;100782.72;670430;29;1960;-54
2023/06/17 00:37:21;;;;;;;6.90;5.30;;;;;;;14.05;100.00;100774.88;672049;29;1041;-56
2023/06/17 00:37:41;;;;;;;6.63;5.38;;;;;;;14.04;100.00;100781.91;673398;29;897;-56
2023/06/17 00:38:01;;;;;;;7.13;5.50;;;;;;;14.04;100.00;100781.91;669576;29;1505;-56
2023/06/17 00:38:22;;;;;;;8.75;5.95;;;;;;;14.07;100.00;100775.75;674116;29;897;-56
2023/06/17 00:38:42;;;;;;;7.87;5.37;;;;;;;14.02;100.00;100778.44;673287;29;5177;-56
2023/06/17 00:39:02;;;;;;;6.50;5.07;;;;;;;14.02;100.00;100778.44;672402;29;970;-56
2023/06/17 00:39:23;;;;;;;7.15;5.10;;;;;;;14.01;100.00;100786.34;672530;29;1375;-56
2023/06/17 00:39:44;;;;;;;7.20;5.18;;;;;;;14.04;100.00;100781.03;672573;29;4628;-56
2023/06/17 00:40:08;;;;;;;8.47;5.50;;;;;;;14.04;100.00;100781.91;672510;29;1533;-56
2023/06/17 00:40:28;;;;;;;8.07;5.43;;;;;;;14.06;100.00;100782.75;671804;29;1444;-56
2023/06/17 00:40:49;;;;;;;6.88;5.40;;;;;;;14.07;100.00;100781.00;673738;29;996;-56
2023/06/17 00:41:09;;;;;;;8.33;5.60;;;;;;;14.00;100.00;100780.22;672486;29;1609;-58
2023/06/17 00:41:30;;;;;;;7.95;5.57;;;;;;;13.99;100.00;100781.13;673224;29;897;-56
2023/06/17 00:41:50;;;;;;;8.53;5.47;;;;;;;14.01;100.00;100783.72;676677;29;1451;-55
2023/06/17 00:42:11;;;;;;;7.80;5.40;;;;;;;14.01;100.00;100781.09;675827;29;1711;-56
2023/06/17 00:42:32;;;;;;;6.60;5.30;;;;;;;13.94;100.00;100781.22;676370;29;1242;-56
2023/06/17 00:42:52;;;;;;;6.53;5.50;;;;;;;13.90;100.00;100779.53;675230;29;4515;-55
2023/06/17 00:43:13;;;;;;;6.60;5.60;;;;;;;13.91;100.00;100786.50;672218;29;893;-56
2023/06/17 00:43:33;;;;;;;6.87;5.50;;;;;;;13.93;100.00;100783.88;672862;29;1149;-56
2023/06/17 00:43:56;;;;;;;7.03;5.40;;;;;;;13.93;100.00;100782.09;673639;29;1582;-55
2023/06/17 00:44:16;;;;;;;8.20;5.43;;;;;;;13.92;100.00;100780.34;676422;29;893;-56
2023/06/17 00:44:39;;;;;;;8.03;5.53;;;;;;;13.98;100.00;100782.00;676335;29;822;-56
2023/06/17 00:44:59;;;;;;;7.65;5.55;;;;;;;13.91;100.00;100778.59;675212;29;1603;-56
2023/06/17 00:45:20;;;;;;;7.20;5.73;;;;;;;13.89;100.00;100772.53;673744;29;1222;-56
2023/06/17 00:45:40;;;;;;;7.85;5.45;;;;;;;13.90;100.00;100779.53;676719;29;4426;-54
2023/06/17 00:46:00;;;;;;;7.93;5.43;;;;;;;13.90;100.00;100779.53;672817;29;1714;-56
2023/06/17 00:46:38;;;;;;;7.13;5.60;;;;;;;13.91;100.00;100781.22;674929;29;1304;-56
2023/06/17 00:47:01;;;;;;;7.25;5.60;;;;;;;13.87;100.00;100779.56;674152;29;1555;-56
2023/06/17 00:47:21;;;;;;;7.60;5.43;;;;;;;13.89;100.00;100779.56;676077;29;811;-56
2023/06/17 00:47:43;;;;;;;7.27;5.50;;;;;;;13.91;100.00;100781.22;677219;29;928;-56
2023/06/17 00:48:08;;;;;;;7.45;5.25;;;;;;;13.92;100.00;100779.50;675141;29;1587;-56
2023/06/17 00:48:29;;;;;;;7.75;5.47;;;;;;;13.87;100.00;100779.56;678372;29;933;-55
2023/06/17 00:48:49;;;;;;;7.85;5.63;;;;;;;13.85;100.00;100783.97;676251;29;4579;-56
2023/06/17 00:49:10;;;;;;;7.70;5.75;;;;;;;13.92;100.00;100782.97;676063;29;1832;-56
2023/06/17 00:49:35;;;;;;;7.45;5.70;;;;;;;13.92;100.00;100782.13;677210;29;922;-56
2023/06/17 00:49:56;;;;;;;7.25;5.68;;;;;;;13.92;100.00;100782.13;675670;29;1494;-56
2023/06/17 00:50:17;;;;;;;7.43;5.63;;;;;;;13.88;100.00;100785.69;674225;29;905;-56
2023/06/17 00:50:38;;;;;;;8.07;5.90;;;;;;;13.92;100.00;100777.72;675377;29;1188;-56
2023/06/17 00:51:01;;;;;;;7.93;5.70;;;;;;;13.96;100.00;100781.19;672611;29;1485;-56
2023/06/17 00:51:22;;;;;;;7.13;5.40;;;;;;;13.94;100.00;100783.84;674533;29;1609;-55
2023/06/17 00:51:43;;;;;;;7.73;5.40;;;;;;;13.90;100.00;100779.53;672428;29;4672;-55
2023/06/17 00:52:07;;;;;;;7.35;5.38;;;;;;;13.87;100.00;100773.44;670391;29;996;-56
2023/06/17 00:52:28;;;;;;;7.50;5.60;;;;;;;13.99;100.00;100782.88;672836;29;977;-56
2023/06/17 00:52:52;;;;;;;7.37;5.47;;;;;;;13.93;100.00;100782.09;670275;29;910;-56
2023/06/17 00:53:13;;;;;;;6.78;5.25;;;;;;;13.91;100.00;100775.97;671390;29;885;-55
2023/06/17 00:53:33;;;;;;;6.97;5.30;;;;;;;13.88;100.00;100780.44;670858;29;1061;-56
2023/06/17 00:53:54;;;;;;;7.97;5.50;;;;;;;13.81;100.00;100777.03;670091;29;1650;-56
2023/06/17 00:54:15;;;;;;;7.43;5.45;;;;;;;13.88;100.00;100777.81;673415;29;941;-55
2023/06/17 00:54:38;;;;;;;6.85;5.22;;;;;;;13.89;100.00;100780.41;673873;29;826;-56
2023/06/17 00:54:59;;;;;;;7.90;5.78;;;;;;;13.82;100.00;100778.78;672765;29;4515;-56
2023/06/17 00:55:21;;;;;;;7.38;5.28;;;;;;;13.78;100.00;100775.31;675456;29;1418;-55
2023/06/17 00:55:42;;;;;;;6.85;5.25;;;;;;;13.73;100.00;100771.91;675215;29;1324;-55
2023/06/17 00:56:04;;;;;;;7.10;5.10;;;;;;;13.71;100.00;100772.84;670785;29;1423;-55
2023/06/17 00:56:26;;;;;;;9.52;5.47;;;;;;;13.70;100.00;100777.19;672640;29;978;-56
2023/06/17 00:56:47;;;;;;;7.53;5.53;;;;;;;13.63;100.00;100773.81;674589;29;1919;-56
2023/06/17 00:57:10;;;;;;;6.50;5.80;;;;;;;13.61;100.00;100780.00;674056;29;1473;-56
2023/06/17 00:57:31;;;;;;;6.82;5.32;;;;;;;13.57;100.00;100766.03;670342;29;1197;-55
2023/06/17 00:57:53;;;;;;;6.97;5.22;;;;;;;13.60;100.00;100778.25;667802;29;4380;-56
2023/06/17 00:58:13;;;;;;;8.00;5.50;;;;;;;13.61;100.00;100767.72;671698;29;1436;-56
2023/06/17 00:58:35;;;;;;;7.43;5.50;;;;;;;13.59;100.00;100780.00;670651;29;802;-54
2023/06/17 00:58:57;;;;;;;7.80;5.47;;;;;;;13.58;100.00;100774.78;670671;29;1466;-55
2023/06/17 00:59:18;;;;;;;6.93;5.10;;;;;;;13.56;100.00;100773.94;668707;29;1468;-56
2023/06/17 00:59:40;;;;;;;8.67;5.40;;;;;;;13.52;100.00;100769.63;671526;29;1105;-56
2023/06/17 01:00:00;;;;;;;8.70;5.35;;;;;;;13.53;100.00;100774.84;672145;29;1763;-55
2023/06/17 01:00:21;;;;;;;8.17;5.50;;;;;;;13.56;100.00;100777.41;672897;29;1296;-56
2023/06/17 01:00:41;;;;;;;7.15;5.57;;;;;;;13.57;100.00;100773.91;671516;29;4419;-55
2023/06/17 01:01:01;;;;;;;6.83;5.27;;;;;;;13.54;100.00;100781.84;672980;29;1567;-56
2023/06/17 01:01:24;;;;;;;7.40;5.60;;;;;;;13.50;100.00;100777.53;674157;29;1101;-56
2023/06/17 01:01:44;;;;;;;7.85;5.65;;;;;;;13.48;100.00;100781.06;674573;29;909;-55
2023/06/17 01:02:09;;;;;;;8.20;5.60;;;;;;;13.49;100.00;100775.78;673501;29;1589;-55
2023/06/17 01:02:29;;;;;;;7.88;5.70;;;;;;;13.49;100.00;100772.31;676644;29;1157;-56
2023/06/17 01:02:50;;;;;;;7.80;5.70;;;;;;;13.47;100.00;100774.94;673950;29;1328;-56
2023/06/17 01:03:10;;;;;;;7.17;5.57;;;;;;;13.50;100.00;100774.91;673336;29;1596;-56
2023/06/17 01:03:30;;;;;;;6.80;5.60;;;;;;;13.51;100.00;100776.63;674217;29;1152;-55
2023/06/17 01:03:53;;;;;;;7.13;5.60;;;;;;;13.52;100.00;100774.88;674363;29;4401;-56
2023/06/17 01:04:15;;;;;;;7.07;5.55;;;;;;;13.51;100.00;100776.63;674550;29;784;-55
2023/06/17 01:04:37;;;;;;;7.07;5.47;;;;;;;13.51;100.00;100768.75;674365;29;838;-55
2023/06/17 01:05:01;;;;;;;12.23;5.82;;;;;;;13.50;100.00;100776.66;673434;29;1738;-55
2023/06/17 01:05:23;;;;;;;6.82;5.10;;;;;;;13.47;100.00;100774.06;676594;29;1084;-56
2023/06/17 01:05:47;;;;;;;7.13;5.33;;;;;;;13.48;100.00;100771.41;674265;29;1337;-56
2023/06/17 01:06:17;;;;;;;6.95;5.20;;;;;;;13.45;100.00;100771.47;672888;29;964;-56
2023/06/17 01:06:50;;;;;;;7.15;5.40;;;;;;;13.47;100.00;100772.28;669865;29;2200;-55
2023/06/17 01:07:12;;;;;;;6.95;5.43;;;;;;;13.51;100.00;100768.75;672932;29;4756;-55
2023/06/17 01:07:42;;;;;;;7.60;5.43;;;;;;;13.49;100.00;100773.16;675667;29;1092;-54
2023/06/17 01:08:26;;;;;;;6.47;5.18;;;;;;;13.51;100.00;100770.50;674930;29;1471;-56
2023/06/17 01:08:57;;;;;;;8.40;5.60;;;;;;;13.53;100.00;100774.84;676511;29;874;-56
2023/06/17 01:09:23;;;;;;;7.68;5.72;;;;;;;13.54;100.00;100768.72;677044;29;1425;-56
2023/06/17 01:09:50;;;;;;;7.25;5.68;;;;;;;13.48;100.00;100771.41;673873;29;4378;-56
2023/06/17 01:10:13;;;;;;;7.28;5.60;;;;;;;13.47;100.00;100767.03;673170;29;1446;-56
2023/06/17 01:10:51;;;;;;;7.63;5.53;;;;;;;13.49;100.00;100767.06;672987;29;917;-56
2023/06/17 01:11:14;;;;;;;7.45;5.32;;;;;;;13.50;100.00;100766.13;673990;29;1582;-56
2023/06/17 01:11:37;;;;;;;7.60;5.35;;;;;;;13.49;100.00;100773.16;675621;29;1234;-55
2023/06/17 01:11:59;;;;;;;6.82;5.30;;;;;;;13.43;100.00;100775.88;674498;29;1498;-55
2023/06/17 01:12:19;;;;;;;6.90;5.47;;;;;;;13.42;100.00;100774.16;677725;29;850;-56
2023/06/17 01:12:41;;;;;;;7.00;5.43;;;;;;;13.44;100.00;100773.25;678728;29;4438;-55
2023/06/17 01:13:03;;;;;;;7.90;5.43;;;;;;;13.44;100.00;100769.72;677319;29;1455;-56
2023/06/17 01:13:26;;;;;;;7.78;5.45;;;;;;;13.40;100.00;100771.56;677025;29;917;-56
2023/06/17 01:13:51;;;;;;;6.72;5.43;;;;;;;13.35;100.00;100767.22;676331;29;937;-56
2023/06/17 01:14:14;;;;;;;6.78;5.43;;;;;;;13.38;100.00;100773.31;676490;29;1181;-56
2023/06/17 01:14:35;;;;;;;7.30;5.88;;;;;;;13.39;100.00;100772.44;674236;29;1249;-55
2023/06/17 01:14:57;;;;;;;7.30;5.50;;;;;;;13.39;100.00;100769.81;673038;29;1517;-56
2023/06/17 01:15:18;;;;;;;6.78;5.38;;;;;;;13.37;100.00;100768.09;673951;29;1318;-56
2023/06/17 01:15:39;;;;;;;7.22;5.53;;;;;;;13.34;100.00;100773.34;674861;29;1085;-56
2023/06/17 01:16:01;;;;;;;6.68;5.70;;;;;;;13.33;100.00;100777.72;672753;29;4744;-56
2023/06/17 01:16:25;;;;;;;8.02;5.90;;;;;;;13.36;100.00;100776.84;669960;29;1200;-56
2023/06/17 01:16:50;;;;;;;7.32;5.75;;;;;;;13.36;100.00;100775.13;671396;29;1911;-55
2023/06/17 01:17:12;;;;;;;7.88;5.45;;;;;;;13.32;100.00;100770.75;670005;29;1092;-55
2023/06/17 01:17:33;;;;;;;6.68;5.30;;;;;;;13.28;100.00;100769.06;671860;29;929;-56
2023/06/17 01:17:54;;;;;;;8.25;5.57;;;;;;;13.28;100.00;100774.31;672388;29;1567;-56
2023/06/17 01:18:17;;;;;;;7.68;5.93;;;;;;;13.31;100.00;100770.78;677113;29;1205;-55
2023/06/17 01:18:40;;;;;;;7.60;5.60;;;;;;;13.29;100.00;100766.41;676912;29;2073;-55
2023/06/17 01:19:02;;;;;;;8.05;5.32;;;;;;;13.26;100.00;100776.06;675188;29;4642;-55
2023/06/17 01:19:24;;;;;;;7.35;5.50;;;;;;;13.20;100.00;100771.78;676638;29;826;-55
2023/06/17 01:19:48;;;;;;;6.72;5.38;;;;;;;13.25;100.00;100769.97;674495;29;1310;-56
2023/06/17 01:20:10;;;;;;;6.85;5.43;;;;;;;13.26;100.00;100762.94;672942;29;1555;-56
2023/06/17 01:20:34;;;;;;;6.78;5.43;;;;;;;13.21;100.00;100764.75;673110;29;1457;-56
2023/06/17 01:20:58;;;;;;;6.88;5.20;;;;;;;13.17;100.00;100766.59;673039;29;1571;-56
2023/06/17 01:21:22;;;;;;;7.18;5.25;;;;;;;13.20;100.00;100766.53;673515;29;1061;-56
2023/06/17 01:21:43;;;;;;;7.07;5.53;;;;;;;13.22;100.00;100763.88;673751;29;4584;-56
2023/06/17 01:22:06;;;;;;;8.10;5.80;;;;;;;13.24;100.00;100760.34;668020;29;1021;-56
2023/06/17 01:22:27;;;;;;;7.93;5.57;;;;;;;13.22;100.00;100764.78;668366;29;1243;-55
2023/06/17 01:22:52;;;;;;;7.03;5.40;;;;;;;13.18;100.00;100768.34;666757;29;898;-54
2023/06/17 01:23:15;;;;;;;7.50;5.25;;;;;;;13.19;100.00;100764.78;667651;29;930;-56
2023/06/17 01:23:37;;;;;;;6.90;5.20;;;;;;;13.24;100.00;100764.75;668648;29;849;-56
2023/06/17 01:24:02;;;;;;;7.88;5.40;;;;;;;13.25;100.00;100762.09;669696;29;1552;-56
2023/06/17 01:24:27;;;;;;;8.02;5.55;;;;;;;13.25;100.00;100764.72;673568;29;917;-55
2023/06/17 01:24:49;;;;;;;8.10;5.43;;;;;;;13.25;100.00;100763.84;674529;29;4408;-55
2023/06/17 01:25:13;;;;;;;7.40;5.70;;;;;;;13.25;100.00;100763.84;675747;29;1571;-55
2023/06/17 01:25:34;;;;;;;6.65;5.10;;;;;;;13.25;100.00;100764.72;676779;29;984;-56
2023/06/17 01:25:57;;;;;;;8.27;5.53;;;;;;;13.29;100.00;100761.16;672286;29;1238;-55
2023/06/17 01:26:21;;;;;;;7.25;5.60;;;;;;;13.33;100.00;100763.75;673578;29;1041;-55
2023/06/17 01:26:44;;;;;;;7.00;5.38;;;;;;;13.33;100.00;100769.00;672816;29;866;-56
2023/06/17 01:27:05;;;;;;;7.43;5.47;;;;;;;13.29;100.00;100755.91;671911;29;1705;-55
2023/06/17 01:27:26;;;;;;;8.83;5.40;;;;;;;13.31;100.00;100760.28;674009;29;921;-55
2023/06/17 01:27:49;;;;;;;8.50;5.20;;;;;;;13.31;100.00;100760.28;670819;29;4332;-55
2023/06/17 01:28:15;;;;;;;7.68;5.32;;;;;;;13.34;100.00;100762.84;672057;29;1624;-56
2023/06/17 01:28:40;;;;;;;8.07;5.57;;;;;;;13.35;100.00;100757.63;675323;29;838;-54
2023/06/17 01:29:01;;;;;;;7.07;5.57;;;;;;;13.33;100.00;100759.34;671809;29;990;-56
2023/06/17 01:29:22;;;;;;;7.37;5.60;;;;;;;13.31;100.00;100760.28;673807;29;909;-56
2023/06/17 01:29:46;;;;;;;7.57;5.65;;;;;;;13.31;100.00;100762.91;675611;29;1120;-56
2023/06/17 01:30:11;;;;;;;7.10;5.43;;;;;;;13.29;100.00;100760.28;675219;29;1215;-56
2023/06/17 01:30:33;;;;;;;7.43;6.00;;;;;;;13.28;100.00;100766.44;672046;29;2202;-56
2023/06/17 01:30:56;;;;;;;7.88;6.05;;;;;;;13.27;100.00;100764.69;672412;29;4710;-55
2023/06/17 01:31:20;;;;;;;7.10;5.47;;;;;;;13.23;100.00;100761.22;674246;29;2516;-56
2023/06/17 01:31:40;;;;;;;7.05;5.25;;;;;;;13.23;100.00;100763.84;671040;29;972;-56
2023/06/17 01:32:05;;;;;;;7.45;5.55;;;;;;;13.24;100.00;100757.72;667910;29;1626;-56
2023/06/17 01:32:25;;;;;;;7.88;5.60;;;;;;;13.26;100.00;100755.06;671529;29;829;-56
2023/06/17 01:32:46;;;;;;;7.53;5.45;;;;;;;13.27;100.00;100757.69;669306;29;937;-56
2023/06/17 01:33:06;;;;;;;8.00;5.57;;;;;;;13.28;100.00;100763.81;664204;29;1525;-55
2023/06/17 01:33:27;;;;;;;7.10;5.38;;;;;;;13.26;100.00;100755.97;667652;29;1413;-56
2023/06/17 01:33:50;;;;;;;7.80;5.20;;;;;;;13.29;100.00;100761.16;669230;29;4324;-56
2023/06/17 01:34:11;;;;;;;7.68;5.72;;;;;;;13.29;100.00;100766.41;670265;29;1541;-55
2023/06/17 01:34:56;;;;;;;7.85;6.20;;;;;;;13.31;100.00;100760.28;671997;29;830;-56
2023/06/17 01:35:17;;;;;;;6.95;5.55;;;;;;;13.31;100.00;100755.03;673175;29;1248;-56
2023/06/17 01:35:40;;;;;;;7.40;5.60;;;;;;;13.32;100.00;100767.25;674132;29;1474;-56
2023/06/17 01:36:17;;;;;;;7.22;5.55;;;;;;;13.27;100.00;100762.94;672055;29;1905;-56
2023/06/17 01:36:39;;;;;;;8.05;5.47;;;;;;;13.23;100.00;100760.38;673018;29;1022;-55
2023/06/17 01:37:04;;;;;;;7.70;5.38;;;;;;;13.24;100.00;100757.72;671202;29;4604;-56
2023/06/17 01:37:40;;;;;;;7.95;5.90;;;;;;;13.25;100.00;100758.59;674395;29;1256;-56
2023/06/17 01:38:17;;;;;;;7.45;5.40;;;;;;;13.24;100.00;100756.88;675368;29;1673;-56
2023/06/17 01:38:41;;;;;;;7.35;5.43;;;;;;;13.21;100.00;100756.91;673834;29;791;-56
2023/06/17 01:39:03;;;;;;;7.03;5.40;;;;;;;13.21;100.00;100767.38;672560;29;1556;-54
2023/06/17 01:39:25;;;;;;;6.78;5.20;;;;;;;13.20;100.00;100756.03;673278;29;1391;-55
2023/06/17 01:39:48;;;;;;;8.20;5.60;;;;;;;13.22;100.00;100759.53;674047;29;4400;-55
2023/06/17 01:40:13;;;;;;;6.60;5.43;;;;;;;13.24;100.00;100762.13;672554;29;1492;-56
2023/06/17 01:40:37;;;;;;;7.75;5.25;;;;;;;13.24;100.00;100762.13;676438;29;916;-55
2023/06/17 01:41:02;;;;;;;7.60;5.30;;;;;;;13.24;100.00;100762.97;675724;29;1618;-56
2023/06/17 01:41:32;;;;;;;6.88;5.38;;;;;;;13.23;100.00;100755.97;677582;29;913;-56
2023/06/17 01:41:57;;;;;;;6.70;5.50;;;;;;;13.20;100.00;100763.91;678015;29;1021;-55
2023/06/17 01:42:31;;;;;;;7.47;5.40;;;;;;;13.23;100.00;100760.38;672769;29;1310;-56
2023/06/17 01:42:53;;;;;;;6.70;5.45;;;;;;;13.27;100.00;100759.44;674982;29;4710;-56
2023/06/17 01:43:16;;;;;;;7.03;5.50;;;;;;;13.25;100.00;100761.22;673448;29;1438;-56
2023/06/17 01:43:40;;;;;;;7.38;5.50;;;;;;;13.27;100.00;100762.06;671438;29;1546;-55
2023/06/17 01:44:03;;;;;;;7.35;5.53;;;;;;;13.29;100.00;100757.66;670218;29;1477;-56
2023/06/17 01:44:26;;;;;;;7.15;5.35;;;;;;;13.22;100.00;100753.38;673802;29;1374;-56
2023/06/17 01:44:47;;;;;;;6.97;5.30;;;;;;;13.21;100.00;100763.03;668431;29;1373;-56
2023/06/17 01:45:08;;;;;;;7.40;5.55;;;;;;;13.22;100.00;100759.53;669527;29;1481;-56
2023/06/17 01:45:30;;;;;;;7.30;5.40;;;;;;;13.22;100.00;100764.78;669328;29;1323;-56